createdAt,value
2017-08-12T00:00:17.116Z,23.55
2017-08-12T00:01:16.840Z,23.55
2017-08-12T00:02:16.864Z,23.57
2017-08-12T00:03:17.206Z,23.55
2017-08-12T00:04:17.227Z,23.57
2017-08-12T00:05:16.632Z,23.6
2017-08-12T00:06:17.289Z,23.54
2017-08-12T00:07:17.007Z,23.61
2017-08-12T00:08:16.716Z,23.65
2017-08-12T00:09:17.365Z,23.58
2017-08-12T00:10:17.085Z,23.55
2017-08-12T00:11:17.109Z,23.55
2017-08-12T00:12:17.137Z,23.55
2017-08-12T00:13:17.477Z,23.54
2017-08-12T00:14:17.503Z,23.65
2017-08-12T00:15:17.528Z,23.66
2017-08-12T00:16:17.556Z,23.57
2017-08-12T00:17:17.585Z,23.57
2017-08-12T00:18:17.617Z,23.58
2017-08-12T00:19:17.639Z,23.55
2017-08-12T00:20:17.348Z,23.6
2017-08-12T00:21:17.696Z,23.63
2017-08-12T00:22:17.717Z,23.6
2017-08-12T00:23:17.121Z,23.63
2017-08-12T00:24:17.463Z,23.66
2017-08-12T00:25:17.796Z,23.65
2017-08-12T00:26:17.828Z,23.55
2017-08-12T00:27:17.541Z,23.57
2017-08-12T00:28:17.570Z,23.61
2017-08-12T00:29:17.593Z,23.6
2017-08-12T00:30:17.626Z,23.65
2017-08-12T00:31:17.642Z,23.55
2017-08-12T00:32:17.677Z,23.61
2017-08-12T00:33:18.018Z,23.63
2017-08-12T00:34:18.047Z,23.61
2017-08-12T00:35:17.448Z,23.66
2017-08-12T00:36:17.788Z,23.58
2017-08-12T00:37:17.811Z,23.57
2017-08-12T00:38:17.529Z,23.63
2017-08-12T00:39:17.555Z,23.61
2017-08-12T00:40:18.204Z,23.66
2017-08-12T00:41:18.239Z,23.66
2017-08-12T00:42:17.949Z,23.61
2017-08-12T00:43:18.294Z,23.6
2017-08-12T00:44:18.319Z,23.63
2017-08-12T00:45:18.348Z,23.63
2017-08-12T00:46:18.060Z,23.65
2017-08-12T00:47:18.021Z,23.69
2017-08-12T00:48:17.806Z,23.63
2017-08-12T00:49:18.447Z,23.63
2017-08-12T00:50:18.485Z,23.65
2017-08-12T00:51:18.186Z,23.61
2017-08-12T00:52:18.477Z,23.63
2017-08-12T00:53:18.250Z,23.66
2017-08-12T00:54:18.275Z,23.61
2017-08-12T00:55:18.610Z,23.65
2017-08-12T00:56:18.327Z,23.6
2017-08-12T00:57:18.649Z,23.61
2017-08-12T00:58:18.689Z,23.63
2017-08-12T00:59:18.718Z,23.58
2017-08-12T01:00:18.432Z,23.63
2017-08-12T01:01:18.781Z,23.57
2017-08-12T01:02:19.046Z,23.61
2017-08-12T01:03:18.506Z,23.7
2017-08-12T01:04:18.232Z,23.6
2017-08-12T01:05:18.883Z,23.66
2017-08-12T01:06:18.599Z,23.65
2017-08-12T01:07:19.241Z,23.65
2017-08-12T01:08:18.653Z,23.63
2017-08-12T01:09:18.990Z,23.58
2017-08-12T01:10:18.711Z,23.58
2017-08-12T01:11:18.411Z,23.66
2017-08-12T01:12:19.325Z,23.61
2017-08-12T01:13:18.781Z,23.57
2017-08-12T01:14:19.122Z,23.61
2017-08-12T01:15:19.164Z,23.66
2017-08-12T01:16:19.176Z,23.68
2017-08-12T01:17:19.197Z,23.55
2017-08-12T01:18:19.226Z,23.6
2017-08-12T01:19:18.634Z,23.57
2017-08-12T01:20:19.283Z,23.6
2017-08-12T01:21:19.309Z,23.66
2017-08-12T01:22:19.645Z,23.61
2017-08-12T01:23:19.049Z,23.61
2017-08-12T01:24:18.765Z,23.55
2017-08-12T01:25:19.419Z,23.57
2017-08-12T01:26:19.441Z,23.68
2017-08-12T01:27:19.725Z,23.55
2017-08-12T01:28:18.894Z,23.63
2017-08-12T01:29:19.525Z,23.65
2017-08-12T01:30:18.927Z,23.57
2017-08-12T01:31:19.581Z,23.55
2017-08-12T01:32:19.553Z,23.55
2017-08-12T01:33:19.633Z,23.57
2017-08-12T01:34:19.350Z,23.55
2017-08-12T01:35:19.379Z,23.55
2017-08-12T01:36:19.720Z,23.57
2017-08-12T01:37:19.733Z,23.58
2017-08-12T01:38:19.459Z,23.5
2017-08-12T01:39:19.490Z,23.54
2017-08-12T01:40:19.827Z,23.57
2017-08-12T01:41:19.540Z,23.57
2017-08-12T01:42:20.176Z,23.54
2017-08-12T01:43:19.590Z,23.54
2017-08-12T01:44:19.622Z,23.55
2017-08-12T01:45:19.650Z,23.54
2017-08-12T01:46:19.983Z,23.53
2017-08-12T01:47:19.999Z,23.53
2017-08-12T01:48:19.729Z,23.55
2017-08-12T01:49:20.061Z,23.51
2017-08-12T01:50:20.099Z,23.51
2017-08-12T01:51:19.499Z,23.55
2017-08-12T01:52:20.456Z,23.53
2017-08-12T01:53:19.866Z,23.58
2017-08-12T01:54:20.201Z,23.54
2017-08-12T01:55:20.235Z,23.57
2017-08-12T01:56:19.947Z,23.48
2017-08-12T01:57:20.587Z,23.51
2017-08-12T01:58:20.002Z,23.53
2017-08-12T01:59:20.341Z,23.53
2017-08-12T02:00:20.050Z,23.58
2017-08-12T02:01:20.080Z,23.53
2017-08-12T02:02:20.668Z,23.53
2017-08-12T02:03:20.132Z,23.54
2017-08-12T02:04:20.458Z,23.51
2017-08-12T02:05:20.502Z,23.55
2017-08-12T02:06:20.532Z,23.51
2017-08-12T02:07:20.876Z,23.53
2017-08-12T02:08:20.581Z,23.48
2017-08-12T02:09:20.602Z,23.53
2017-08-12T02:10:20.635Z,23.53
2017-08-12T02:11:20.035Z,23.53
2017-08-12T02:12:20.079Z,23.55
2017-08-12T02:13:20.721Z,23.53
2017-08-12T02:14:20.441Z,23.5
2017-08-12T02:15:20.774Z,23.48
2017-08-12T02:16:20.799Z,23.54
2017-08-12T02:17:20.518Z,23.55
2017-08-12T02:18:20.224Z,23.51
2017-08-12T02:19:20.569Z,23.5
2017-08-12T02:20:20.901Z,23.43
2017-08-12T02:21:20.936Z,23.46
2017-08-12T02:22:20.652Z,23.5
2017-08-12T02:23:20.989Z,23.48
2017-08-12T02:24:20.706Z,23.53
2017-08-12T02:25:21.042Z,23.55
2017-08-12T02:26:21.063Z,23.46
2017-08-12T02:27:20.468Z,23.5
2017-08-12T02:28:21.418Z,23.57
2017-08-12T02:29:20.833Z,23.51
2017-08-12T02:30:20.883Z,23.51
2017-08-12T02:31:20.898Z,23.6
2017-08-12T02:32:21.240Z,23.46
2017-08-12T02:33:21.245Z,23.48
2017-08-12T02:34:20.976Z,23.53
2017-08-12T02:35:21.296Z,23.57
2017-08-12T02:36:21.023Z,23.53
2017-08-12T02:37:21.047Z,23.58
2017-08-12T02:38:21.694Z,23.5
2017-08-12T02:39:21.416Z,23.5
2017-08-12T02:40:21.438Z,23.54
2017-08-12T02:41:21.153Z,23.54
2017-08-12T02:42:20.882Z,23.48
2017-08-12T02:43:21.461Z,23.58
2017-08-12T02:44:21.552Z,23.54
2017-08-12T02:45:21.575Z,23.51
2017-08-12T02:46:21.604Z,23.47
2017-08-12T02:47:21.633Z,23.47
2017-08-12T02:48:21.964Z,23.46
2017-08-12T02:49:21.686Z,23.53
2017-08-12T02:50:21.714Z,23.48
2017-08-12T02:51:21.755Z,23.46
2017-08-12T02:52:21.463Z,23.4
2017-08-12T02:53:21.735Z,23.46
2017-08-12T02:54:21.821Z,23.47
2017-08-12T02:55:21.854Z,23.43
2017-08-12T02:56:21.863Z,23.48
2017-08-12T02:57:21.900Z,23.43
2017-08-12T02:58:21.916Z,23.57
2017-08-12T02:59:21.961Z,23.5
2017-08-12T03:00:21.676Z,23.47
2017-08-12T03:01:22.016Z,23.47
2017-08-12T03:02:21.724Z,23.51
2017-08-12T03:03:22.096Z,23.5
2017-08-12T03:04:22.084Z,23.57
2017-08-12T03:05:22.117Z,23.5
2017-08-12T03:06:22.142Z,23.51
2017-08-12T03:07:22.171Z,23.5
2017-08-12T03:08:22.135Z,23.46
2017-08-12T03:09:21.909Z,23.43
2017-08-12T03:10:22.250Z,23.5
2017-08-12T03:11:22.274Z,23.46
2017-08-12T03:12:21.991Z,23.46
2017-08-12T03:13:22.629Z,23.47
2017-08-12T03:14:22.357Z,23.48
2017-08-12T03:15:22.388Z,23.43
2017-08-12T03:16:22.410Z,23.46
2017-08-12T03:17:22.119Z,23.47
2017-08-12T03:18:22.451Z,23.5
2017-08-12T03:19:22.176Z,23.43
2017-08-12T03:20:22.205Z,23.43
2017-08-12T03:21:22.250Z,23.46
2017-08-12T03:22:22.259Z,23.48
2017-08-12T03:23:22.901Z,23.46
2017-08-12T03:24:22.313Z,23.5
2017-08-12T03:25:22.030Z,23.5
2017-08-12T03:26:22.366Z,23.5
2017-08-12T03:27:22.391Z,23.5
2017-08-12T03:28:23.042Z,23.46
2017-08-12T03:29:22.773Z,23.47
2017-08-12T03:30:22.789Z,23.47
2017-08-12T03:31:22.207Z,23.46
2017-08-12T03:32:22.838Z,23.46
2017-08-12T03:33:23.175Z,23.43
2017-08-12T03:34:22.902Z,23.4
2017-08-12T03:35:22.302Z,23.39
2017-08-12T03:36:22.642Z,23.36
2017-08-12T03:37:22.976Z,23.38
2017-08-12T03:38:23.012Z,23.4
2017-08-12T03:39:22.717Z,23.39
2017-08-12T03:40:23.057Z,23.39
2017-08-12T03:41:23.097Z,23.38
2017-08-12T03:42:22.800Z,23.39
2017-08-12T03:43:23.139Z,23.4
2017-08-12T03:44:22.857Z,23.38
2017-08-12T03:45:23.198Z,23.4
2017-08-12T03:46:23.219Z,23.36
2017-08-12T03:47:22.937Z,23.38
2017-08-12T03:48:23.280Z,23.32
2017-08-12T03:49:23.301Z,23.36
2017-08-12T03:50:23.317Z,23.32
2017-08-12T03:51:23.350Z,23.38
2017-08-12T03:52:23.382Z,23.32
2017-08-12T03:53:23.403Z,23.38
2017-08-12T03:54:23.119Z,23.32
2017-08-12T03:55:23.465Z,23.38
2017-08-12T03:56:23.490Z,23.33
2017-08-12T03:57:23.515Z,23.39
2017-08-12T03:58:23.536Z,23.39
2017-08-12T03:59:23.572Z,23.32
2017-08-12T04:00:23.285Z,23.28
2017-08-12T04:01:22.999Z,23.36
2017-08-12T04:02:23.648Z,23.28
2017-08-12T04:03:23.052Z,23.32
2017-08-12T04:04:23.688Z,23.31
2017-08-12T04:05:23.420Z,23.36
2017-08-12T04:06:23.754Z,23.36
2017-08-12T04:07:23.779Z,23.35
2017-08-12T04:08:23.807Z,23.31
2017-08-12T04:09:23.784Z,23.32
2017-08-12T04:10:23.865Z,23.32
2017-08-12T04:11:23.890Z,23.25
2017-08-12T04:12:23.599Z,23.28
2017-08-12T04:13:23.346Z,23.28
2017-08-12T04:14:23.961Z,23.25
2017-08-12T04:15:23.694Z,23.27
2017-08-12T04:16:23.718Z,23.38
2017-08-12T04:17:23.737Z,23.25
2017-08-12T04:18:23.764Z,23.39
2017-08-12T04:19:24.089Z,23.28
2017-08-12T04:20:23.826Z,23.36
2017-08-12T04:21:24.158Z,23.31
2017-08-12T04:22:23.874Z,23.25
2017-08-12T04:23:24.206Z,23.32
2017-08-12T04:24:24.225Z,23.38
2017-08-12T04:25:24.272Z,23.23
2017-08-12T04:26:24.298Z,23.28
2017-08-12T04:27:24.319Z,23.32
2017-08-12T04:28:24.352Z,23.25
2017-08-12T04:29:24.001Z,23.27
2017-08-12T04:30:24.090Z,23.32
2017-08-12T04:31:24.430Z,23.31
2017-08-12T04:32:24.143Z,23.36
2017-08-12T04:33:24.474Z,23.33
2017-08-12T04:34:24.760Z,23.33
2017-08-12T04:35:24.211Z,23.36
2017-08-12T04:36:24.258Z,23.36
2017-08-12T04:37:24.587Z,23.28
2017-08-12T04:38:24.620Z,23.35
2017-08-12T04:39:24.307Z,23.36
2017-08-12T04:40:24.049Z,23.31
2017-08-12T04:41:24.694Z,23.31
2017-08-12T04:42:24.098Z,23.33
2017-08-12T04:43:24.440Z,23.33
2017-08-12T04:44:25.070Z,23.28
2017-08-12T04:45:24.793Z,23.33
2017-08-12T04:46:24.833Z,23.4
2017-08-12T04:47:24.546Z,23.36
2017-08-12T04:48:24.571Z,23.36
2017-08-12T04:49:24.902Z,23.35
2017-08-12T04:50:24.932Z,23.35
2017-08-12T04:51:24.685Z,23.33
2017-08-12T04:52:24.994Z,23.36
2017-08-12T04:53:25.032Z,23.36
2017-08-12T04:54:25.295Z,23.36
2017-08-12T04:55:25.064Z,23.39
2017-08-12T04:56:24.784Z,23.36
2017-08-12T04:57:25.131Z,23.38
2017-08-12T04:58:24.839Z,23.33
2017-08-12T04:59:25.434Z,23.46
2017-08-12T05:00:25.206Z,23.36
2017-08-12T05:01:24.617Z,23.42
2017-08-12T05:02:24.946Z,23.4
2017-08-12T05:03:25.288Z,23.38
2017-08-12T05:04:24.693Z,23.38
2017-08-12T05:05:25.340Z,23.4
2017-08-12T05:06:25.373Z,23.39
2017-08-12T05:07:25.086Z,23.32
2017-08-12T05:08:25.107Z,23.39
2017-08-12T05:09:24.824Z,23.36
2017-08-12T05:10:25.157Z,23.35
2017-08-12T05:11:25.186Z,23.39
2017-08-12T05:12:24.905Z,23.46
2017-08-12T05:13:25.238Z,23.36
2017-08-12T05:14:25.587Z,23.35
2017-08-12T05:15:25.308Z,23.35
2017-08-12T05:16:25.013Z,23.36
2017-08-12T05:17:25.359Z,23.33
2017-08-12T05:18:25.067Z,23.39
2017-08-12T05:19:25.719Z,23.36
2017-08-12T05:20:25.435Z,23.38
2017-08-12T05:21:25.458Z,23.39
2017-08-12T05:22:25.798Z,23.42
2017-08-12T05:23:25.202Z,23.39
2017-08-12T05:24:25.544Z,23.32
2017-08-12T05:25:26.127Z,23.4
2017-08-12T05:26:25.905Z,23.38
2017-08-12T05:27:25.926Z,23.4
2017-08-12T05:28:25.643Z,23.36
2017-08-12T05:29:25.987Z,23.4
2017-08-12T05:30:26.009Z,23.42
2017-08-12T05:31:25.725Z,23.38
2017-08-12T05:32:26.060Z,23.42
2017-08-12T05:33:25.778Z,23.42
2017-08-12T05:34:26.120Z,23.33
2017-08-12T05:35:26.401Z,23.42
2017-08-12T05:36:26.173Z,23.43
2017-08-12T05:37:26.197Z,23.38
2017-08-12T05:38:25.915Z,23.39
2017-08-12T05:39:25.939Z,23.4
2017-08-12T05:40:26.584Z,23.42
2017-08-12T05:41:26.301Z,23.36
2017-08-12T05:42:26.330Z,23.35
2017-08-12T05:43:26.354Z,23.39
2017-08-12T05:44:26.075Z,23.43
2017-08-12T05:45:26.400Z,23.36
2017-08-12T05:46:26.128Z,23.4
2017-08-12T05:47:26.152Z,23.4
2017-08-12T05:48:26.498Z,23.42
2017-08-12T05:49:26.211Z,23.4
2017-08-12T05:50:26.492Z,23.38
2017-08-12T05:51:26.573Z,23.42
2017-08-12T05:52:26.599Z,23.38
2017-08-12T05:53:26.635Z,23.42
2017-08-12T05:54:26.659Z,23.32
2017-08-12T05:55:26.936Z,23.42
2017-08-12T05:56:26.705Z,23.43
2017-08-12T05:57:26.738Z,23.43
2017-08-12T05:58:26.136Z,23.43
2017-08-12T05:59:26.479Z,23.42
2017-08-12T06:00:27.116Z,23.4
2017-08-12T06:01:26.533Z,23.4
2017-08-12T06:02:26.558Z,23.42
2017-08-12T06:03:26.895Z,23.38
2017-08-12T06:04:26.918Z,23.36
2017-08-12T06:05:26.892Z,23.39
2017-08-12T06:06:26.353Z,23.42
2017-08-12T06:07:27.011Z,23.42
2017-08-12T06:08:27.026Z,23.42
2017-08-12T06:09:27.071Z,23.53
2017-08-12T06:10:27.383Z,23.38
2017-08-12T06:11:26.801Z,23.43
2017-08-12T06:12:27.142Z,23.47
2017-08-12T06:13:26.854Z,23.42
2017-08-12T06:14:26.566Z,23.39
2017-08-12T06:15:27.259Z,23.43
2017-08-12T06:16:26.936Z,23.42
2017-08-12T06:17:27.273Z,23.4
2017-08-12T06:18:27.301Z,23.4
2017-08-12T06:19:27.006Z,23.48
2017-08-12T06:20:27.654Z,23.46
2017-08-12T06:21:27.072Z,23.46
2017-08-12T06:22:27.409Z,23.46
2017-08-12T06:23:27.118Z,23.48
2017-08-12T06:24:27.151Z,23.46
2017-08-12T06:25:27.783Z,23.48
2017-08-12T06:26:27.540Z,23.5
2017-08-12T06:27:27.229Z,23.48
2017-08-12T06:28:27.574Z,23.48
2017-08-12T06:29:27.586Z,23.5
2017-08-12T06:30:27.621Z,23.47
2017-08-12T06:31:27.660Z,23.57
2017-08-12T06:32:27.377Z,23.46
2017-08-12T06:33:27.705Z,23.57
2017-08-12T06:34:27.732Z,23.53
2017-08-12T06:35:28.063Z,23.54
2017-08-12T06:36:27.483Z,23.46
2017-08-12T06:37:27.501Z,23.48
2017-08-12T06:38:27.854Z,23.53
2017-08-12T06:39:27.554Z,23.5
2017-08-12T06:40:28.202Z,23.53
2017-08-12T06:41:27.927Z,23.55
2017-08-12T06:42:27.949Z,23.54
2017-08-12T06:43:27.977Z,23.48
2017-08-12T06:44:28.004Z,23.55
2017-08-12T06:45:28.028Z,23.54
2017-08-12T06:46:27.751Z,23.55
2017-08-12T06:47:27.773Z,23.57
2017-08-12T06:48:28.111Z,23.57
2017-08-12T06:49:28.135Z,23.58
2017-08-12T06:50:27.851Z,23.53
2017-08-12T06:51:28.187Z,23.54
2017-08-12T06:52:28.221Z,23.55
2017-08-12T06:53:28.246Z,23.51
2017-08-12T06:54:27.642Z,23.58
2017-08-12T06:55:28.312Z,23.57
2017-08-12T06:56:28.012Z,23.51
2017-08-12T06:57:28.357Z,23.57
2017-08-12T06:58:28.070Z,23.58
2017-08-12T06:59:28.098Z,23.54
2017-08-12T07:00:28.430Z,23.55
2017-08-12T07:01:28.147Z,23.6
2017-08-12T07:02:28.197Z,23.55
2017-08-12T07:03:28.513Z,23.55
2017-08-12T07:04:28.230Z,23.6
2017-08-12T07:05:28.564Z,23.57
2017-08-12T07:06:28.291Z,23.57
2017-08-12T07:07:27.997Z,23.55
2017-08-12T07:08:28.344Z,23.6
2017-08-12T07:09:28.673Z,23.66
2017-08-12T07:10:28.398Z,23.65
2017-08-12T07:11:28.356Z,23.58
2017-08-12T07:12:28.449Z,23.7
2017-08-12T07:13:28.780Z,23.72
2017-08-12T07:14:28.806Z,23.73
2017-08-12T07:15:28.837Z,23.69
2017-08-12T07:16:28.852Z,23.68
2017-08-12T07:17:28.893Z,23.76
2017-08-12T07:18:28.927Z,23.78
2017-08-12T07:19:28.940Z,23.75
2017-08-12T07:20:28.659Z,23.72
2017-08-12T07:21:29.263Z,23.72
2017-08-12T07:22:29.032Z,23.79
2017-08-12T07:23:29.057Z,23.79
2017-08-12T07:24:29.082Z,23.76
2017-08-12T07:25:28.798Z,23.78
2017-08-12T07:26:29.437Z,23.76
2017-08-12T07:27:28.857Z,23.83
2017-08-12T07:28:29.193Z,23.78
2017-08-12T07:29:28.911Z,23.76
2017-08-12T07:30:29.238Z,23.83
2017-08-12T07:31:29.568Z,23.76
2017-08-12T07:32:28.672Z,23.79
2017-08-12T07:33:29.026Z,23.76
2017-08-12T07:34:29.354Z,23.76
2017-08-12T07:35:29.379Z,23.79
2017-08-12T07:36:29.396Z,23.76
2017-08-12T07:37:28.809Z,23.7
2017-08-12T07:38:29.161Z,23.75
2017-08-12T07:39:29.493Z,23.69
2017-08-12T07:40:29.199Z,23.75
2017-08-12T07:41:29.847Z,23.72
2017-08-12T07:42:29.573Z,23.7
2017-08-12T07:43:29.280Z,23.69
2017-08-12T07:44:29.334Z,23.8
2017-08-12T07:45:29.022Z,23.78
2017-08-12T07:46:29.661Z,23.75
2017-08-12T07:47:29.080Z,23.75
2017-08-12T07:48:29.429Z,23.69
2017-08-12T07:49:29.447Z,23.76
2017-08-12T07:50:29.786Z,23.78
2017-08-12T07:51:29.750Z,23.79
2017-08-12T07:52:29.532Z,23.78
2017-08-12T07:53:29.553Z,23.63
2017-08-12T07:54:29.893Z,23.78
2017-08-12T07:55:29.303Z,23.75
2017-08-12T07:56:29.940Z,23.68
2017-08-12T07:57:29.972Z,23.72
2017-08-12T07:58:30.005Z,23.72
2017-08-12T07:59:29.402Z,23.72
2017-08-12T08:00:29.773Z,23.73
2017-08-12T08:01:30.025Z,23.73
2017-08-12T08:02:29.795Z,23.61
2017-08-12T08:03:29.829Z,23.69
2017-08-12T08:04:30.168Z,23.7
2017-08-12T08:05:29.885Z,23.66
2017-08-12T08:06:30.515Z,23.6
2017-08-12T08:07:30.248Z,23.63
2017-08-12T08:08:30.284Z,23.65
2017-08-12T08:09:29.995Z,23.57
2017-08-12T08:10:30.024Z,23.63
2017-08-12T08:11:30.665Z,23.65
2017-08-12T08:12:30.069Z,23.61
2017-08-12T08:13:30.420Z,23.73
2017-08-12T08:14:30.127Z,23.61
2017-08-12T08:15:30.468Z,23.6
2017-08-12T08:16:30.427Z,23.53
2017-08-12T08:17:30.516Z,23.65
2017-08-12T08:18:30.233Z,23.65
2017-08-12T08:19:30.577Z,23.66
2017-08-12T08:20:30.603Z,23.65
2017-08-12T08:21:30.878Z,23.65
2017-08-12T08:22:30.656Z,23.6
2017-08-12T08:23:30.374Z,23.7
2017-08-12T08:24:30.717Z,23.68
2017-08-12T08:25:30.739Z,23.75
2017-08-12T08:26:30.139Z,23.75
2017-08-12T08:27:30.479Z,23.75
2017-08-12T08:28:30.501Z,23.66
2017-08-12T08:29:30.538Z,23.7
2017-08-12T08:30:30.878Z,23.76
2017-08-12T08:31:30.590Z,23.76
2017-08-12T08:32:30.927Z,23.69
2017-08-12T08:33:30.649Z,23.76
2017-08-12T08:34:30.987Z,23.72
2017-08-12T08:35:31.001Z,23.7
2017-08-12T08:36:31.035Z,23.78
2017-08-12T08:37:30.755Z,23.76
2017-08-12T08:38:30.771Z,23.76
2017-08-12T08:39:30.492Z,23.79
2017-08-12T08:40:31.138Z,23.85
2017-08-12T08:41:30.551Z,23.85
2017-08-12T08:42:31.200Z,23.87
2017-08-12T08:43:31.217Z,23.88
2017-08-12T08:44:30.949Z,23.8
2017-08-12T08:45:30.657Z,23.83
2017-08-12T08:46:31.307Z,23.9
2017-08-12T08:47:31.335Z,23.85
2017-08-12T08:48:31.362Z,23.93
2017-08-12T08:49:31.391Z,23.91
2017-08-12T08:50:30.793Z,23.87
2017-08-12T08:51:31.130Z,23.84
2017-08-12T08:52:31.102Z,23.9
2017-08-12T08:53:31.184Z,23.87
2017-08-12T08:54:31.217Z,23.83
2017-08-12T08:55:31.549Z,23.87
2017-08-12T08:56:30.962Z,23.84
2017-08-12T08:57:31.595Z,23.85
2017-08-12T08:58:31.627Z,23.84
2017-08-12T08:59:31.665Z,23.88
2017-08-12T09:00:31.378Z,23.88
2017-08-12T09:01:31.743Z,23.85
2017-08-12T09:02:32.046Z,23.85
2017-08-12T09:03:31.767Z,23.8
2017-08-12T09:04:31.477Z,23.93
2017-08-12T09:05:31.820Z,23.84
2017-08-12T09:06:31.853Z,23.87
2017-08-12T09:07:31.819Z,23.9
2017-08-12T09:08:31.912Z,23.91
2017-08-12T09:09:31.621Z,23.84
2017-08-12T09:10:31.956Z,23.87
2017-08-12T09:11:31.679Z,23.88
2017-08-12T09:12:32.278Z,23.88
2017-08-12T09:13:31.732Z,23.85
2017-08-12T09:14:31.456Z,23.87
2017-08-12T09:15:32.096Z,23.78
2017-08-12T09:16:31.817Z,23.87
2017-08-12T09:17:32.457Z,23.78
2017-08-12T09:18:32.184Z,23.79
2017-08-12T09:19:31.891Z,23.75
2017-08-12T09:20:31.921Z,23.83
2017-08-12T09:21:31.950Z,23.78
2017-08-12T09:22:32.231Z,23.76
2017-08-12T09:23:32.003Z,23.72
2017-08-12T09:24:32.036Z,23.85
2017-08-12T09:25:32.371Z,23.72
2017-08-12T09:26:32.397Z,23.76
2017-08-12T09:27:32.367Z,23.72
2017-08-12T09:28:31.823Z,23.69
2017-08-12T09:29:32.476Z,23.73
2017-08-12T09:30:32.513Z,23.7
2017-08-12T09:31:32.223Z,23.72
2017-08-12T09:32:32.551Z,23.78
2017-08-12T09:33:32.273Z,23.75
2017-08-12T09:34:32.606Z,23.76
2017-08-12T09:35:32.337Z,23.76
2017-08-12T09:36:32.045Z,23.79
2017-08-12T09:37:32.652Z,23.75
2017-08-12T09:38:32.726Z,23.75
2017-08-12T09:39:32.753Z,23.7
2017-08-12T09:40:32.817Z,23.73
2017-08-12T09:41:32.807Z,23.8
2017-08-12T09:42:33.139Z,23.76
2017-08-12T09:43:32.556Z,23.73
2017-08-12T09:44:32.571Z,23.7
2017-08-12T09:45:32.627Z,23.73
2017-08-12T09:46:32.629Z,23.73
2017-08-12T09:47:32.907Z,23.73
2017-08-12T09:48:32.997Z,23.68
2017-08-12T09:49:32.704Z,23.72
2017-08-12T09:50:32.742Z,23.7
2017-08-12T09:51:33.080Z,23.78
2017-08-12T09:52:33.458Z,23.73
2017-08-12T09:53:32.847Z,23.7
2017-08-12T09:54:33.194Z,23.73
2017-08-12T09:55:33.184Z,23.73
2017-08-12T09:56:32.901Z,23.72
2017-08-12T09:57:33.503Z,23.72
2017-08-12T09:58:32.962Z,23.75
2017-08-12T09:59:32.982Z,23.83
2017-08-12T10:00:33.335Z,23.73
2017-08-12T10:01:32.724Z,23.7
2017-08-12T10:02:33.366Z,23.7
2017-08-12T10:03:33.403Z,23.73
2017-08-12T10:04:32.808Z,23.72
2017-08-12T10:05:32.837Z,23.73
2017-08-12T10:06:33.480Z,23.78
2017-08-12T10:07:33.188Z,23.78
2017-08-12T10:08:33.538Z,23.75
2017-08-12T10:09:33.567Z,23.76
2017-08-12T10:10:33.596Z,23.69
2017-08-12T10:11:33.627Z,23.75
2017-08-12T10:12:33.641Z,23.73
2017-08-12T10:13:33.680Z,23.73
2017-08-12T10:14:33.396Z,23.73
2017-08-12T10:15:33.737Z,23.78
2017-08-12T10:16:33.137Z,23.73
2017-08-12T10:17:33.430Z,23.75
2017-08-12T10:18:33.816Z,23.8
2017-08-12T10:19:33.858Z,23.73
2017-08-12T10:20:33.556Z,23.73
2017-08-12T10:21:33.893Z,23.72
2017-08-12T10:22:34.220Z,23.73
2017-08-12T10:23:33.642Z,23.73
2017-08-12T10:24:33.666Z,23.75
2017-08-12T10:25:33.996Z,23.72
2017-08-12T10:26:34.038Z,23.79
2017-08-12T10:27:33.758Z,23.78
2017-08-12T10:28:33.779Z,23.73
2017-08-12T10:29:33.812Z,23.75
2017-08-12T10:30:34.156Z,23.78
2017-08-12T10:31:33.866Z,23.73
2017-08-12T10:32:34.198Z,23.78
2017-08-12T10:33:34.223Z,23.73
2017-08-12T10:34:34.268Z,23.72
2017-08-12T10:35:33.959Z,23.72
2017-08-12T10:36:33.992Z,23.73
2017-08-12T10:37:34.021Z,23.8
2017-08-12T10:38:33.740Z,23.73
2017-08-12T10:39:34.392Z,23.72
2017-08-12T10:40:34.101Z,23.79
2017-08-12T10:41:34.440Z,23.73
2017-08-12T10:42:34.166Z,23.76
2017-08-12T10:43:34.494Z,23.72
2017-08-12T10:44:34.221Z,23.75
2017-08-12T10:45:33.929Z,23.83
2017-08-12T10:46:33.961Z,23.73
2017-08-12T10:47:34.610Z,23.72
2017-08-12T10:48:34.006Z,23.76
2017-08-12T10:49:34.655Z,23.75
2017-08-12T10:50:34.376Z,23.76
2017-08-12T10:51:34.405Z,23.72
2017-08-12T10:52:34.738Z,23.7
2017-08-12T10:53:34.774Z,23.79
2017-08-12T10:54:34.799Z,23.72
2017-08-12T10:55:34.827Z,23.83
2017-08-12T10:56:34.528Z,23.76
2017-08-12T10:57:34.561Z,23.83
2017-08-12T10:58:34.591Z,23.72
2017-08-12T10:59:34.325Z,23.79
2017-08-12T11:00:34.972Z,23.83
2017-08-12T11:01:34.989Z,23.76
2017-08-12T11:02:34.704Z,23.87
2017-08-12T11:03:34.726Z,23.83
2017-08-12T11:04:34.755Z,23.87
2017-08-12T11:05:34.783Z,23.78
2017-08-12T11:06:35.111Z,23.87
2017-08-12T11:07:34.843Z,23.87
2017-08-12T11:08:35.182Z,23.85
2017-08-12T11:09:35.208Z,23.91
2017-08-12T11:10:34.608Z,23.83
2017-08-12T11:11:34.965Z,23.87
2017-08-12T11:12:35.285Z,23.88
2017-08-12T11:13:34.998Z,23.87
2017-08-12T11:14:35.336Z,23.87
2017-08-12T11:15:35.056Z,23.87
2017-08-12T11:16:35.081Z,23.95
2017-08-12T11:17:35.437Z,23.87
2017-08-12T11:18:35.746Z,23.9
2017-08-12T11:19:35.168Z,23.85
2017-08-12T11:20:35.196Z,23.87
2017-08-12T11:21:35.225Z,23.85
2017-08-12T11:22:35.250Z,23.87
2017-08-12T11:23:35.262Z,23.88
2017-08-12T11:24:35.307Z,23.87
2017-08-12T11:25:35.641Z,23.85
2017-08-12T11:26:35.662Z,23.88
2017-08-12T11:27:35.697Z,23.85
2017-08-12T11:28:35.713Z,23.88
2017-08-12T11:29:35.126Z,23.84
2017-08-12T11:30:35.779Z,23.85
2017-08-12T11:31:35.804Z,23.88
2017-08-12T11:32:35.526Z,23.88
2017-08-12T11:33:35.802Z,23.91
2017-08-12T11:34:35.891Z,23.88
2017-08-12T11:35:35.603Z,23.9
2017-08-12T11:36:35.635Z,23.9
2017-08-12T11:37:35.659Z,23.84
2017-08-12T11:38:35.938Z,23.83
2017-08-12T11:39:36.027Z,23.91
2017-08-12T11:40:35.739Z,23.88
2017-08-12T11:41:36.076Z,23.9
2017-08-12T11:42:36.111Z,23.84
2017-08-12T11:43:36.387Z,23.85
2017-08-12T11:44:36.162Z,23.87
2017-08-12T11:45:36.179Z,23.87
2017-08-12T11:46:35.904Z,23.87
2017-08-12T11:47:35.937Z,23.9
2017-08-12T11:48:36.264Z,23.95
2017-08-12T11:49:36.307Z,23.88
2017-08-12T11:50:36.329Z,23.95
2017-08-12T11:51:36.352Z,23.94
2017-08-12T11:52:36.074Z,23.88
2017-08-12T11:53:36.659Z,23.91
2017-08-12T11:54:36.439Z,23.98
2017-08-12T11:55:36.152Z,23.95
2017-08-12T11:56:36.181Z,23.97
2017-08-12T11:57:36.201Z,23.94
2017-08-12T11:58:36.848Z,23.9
2017-08-12T11:59:36.559Z,23.97
2017-08-12T12:01:36.625Z,23.91
2017-08-12T12:02:36.653Z,23.87
2017-08-12T12:03:36.618Z,23.97
2017-08-12T12:04:36.390Z,23.94
2017-08-12T12:05:36.424Z,23.98
2017-08-12T12:06:36.460Z,23.98
2017-08-12T12:07:36.156Z,24.02
2017-08-12T12:08:37.073Z,24.06
2017-08-12T12:09:36.534Z,24.03
2017-08-12T12:10:36.871Z,24.05
2017-08-12T12:11:36.900Z,24.12
2017-08-12T12:12:36.929Z,24.06
2017-08-12T12:13:36.941Z,24.08
2017-08-12T12:14:36.978Z,24.06
2017-08-12T12:15:36.710Z,24.02
2017-08-12T12:16:36.727Z,24.09
2017-08-12T12:17:37.057Z,24.08
2017-08-12T12:18:37.088Z,24.08
2017-08-12T12:19:37.118Z,24.03
2017-08-12T12:20:36.834Z,24.1
2017-08-12T12:21:36.864Z,24.02
2017-08-12T12:22:36.884Z,24.03
2017-08-12T12:23:37.480Z,24.02
2017-08-12T12:24:36.947Z,24.03
2017-08-12T12:25:36.984Z,24.03
2017-08-12T12:26:36.994Z,24.06
2017-08-12T12:27:37.034Z,24.05
2017-08-12T12:28:37.054Z,24
2017-08-12T12:29:37.398Z,24.02
2017-08-12T12:30:37.423Z,24.02
2017-08-12T12:31:37.138Z,24.02
2017-08-12T12:32:37.469Z,24
2017-08-12T12:33:37.510Z,24.05
2017-08-12T12:34:36.902Z,24
2017-08-12T12:35:37.560Z,24
2017-08-12T12:36:37.279Z,24.02
2017-08-12T12:37:36.987Z,24.05
2017-08-12T12:38:37.329Z,24.08
2017-08-12T12:39:37.365Z,24.05
2017-08-12T12:40:37.379Z,24.05
2017-08-12T12:41:37.100Z,24.06
2017-08-12T12:42:37.436Z,24.06
2017-08-12T12:43:37.805Z,24.09
2017-08-12T12:44:37.815Z,24.08
2017-08-12T12:45:37.531Z,24.12
2017-08-12T12:46:37.551Z,24.13
2017-08-12T12:47:37.888Z,24.1
2017-08-12T12:48:37.610Z,24.09
2017-08-12T12:49:37.953Z,24.16
2017-08-12T12:50:37.659Z,24.3
2017-08-12T12:51:37.990Z,24.34
2017-08-12T12:52:37.712Z,24.27
2017-08-12T12:53:37.740Z,24.34
2017-08-12T12:54:37.451Z,24.35
2017-08-12T12:55:38.109Z,24.45
2017-08-12T12:56:37.828Z,24.42